• Join FlightAware (Why Join?)
  • Login
  • US Flag 
09:40PM EST


 

Airport Tracker/Info


-or-


 

Live Flight TrackerFlight Track Log ✈ LN-RNL ✈ 02/May/2012 ✈ EKCH / CPH - EHAM / AMS

Flight Track Log - Related Links

Times and Time Zones

All times are in EDT time to prevent confusion due to time zone crossing. See the LN-RNL flight status page for this flight to view local times or setup timezone preferences in your user account.

Time Position Orientation Groundspeed Altitude Reporting Facility
EDT Latitude Longitude Course Direction KTS MPH feet Rate Location/Type
12:17PM 55.6041 12.6172 238° Southwest  Level Estimated
12:18PM 55.5487 12.4624 238° Southwest  Level Estimated
12:19PM 55.4931 12.3080 237° Southwest  Level Estimated
12:20PM 55.4373 12.1541 237° Southwest  Level Estimated
12:21PM 55.3814 12.0006 237° Southwest  Level Estimated
12:22PM 55.3252 11.8476 237° Southwest  Level Estimated
12:23PM 55.2688 11.6949 237° Southwest  Level Estimated
12:24PM 55.2123 11.5428 237° Southwest  Level Estimated
12:25PM 55.1555 11.3910 237° Southwest  Level Estimated
12:26PM 55.0986 11.2397 237° Southwest  Level Estimated
12:27PM 55.0415 11.0888 236° Southwest  Level Estimated
12:28PM 54.9842 10.9383 236° Southwest  Level Estimated
12:29PM 54.9267 10.7883 236° Southwest  Level Estimated
12:30PM 54.8690 10.6386 236° Southwest  Level Estimated
12:31PM 54.8112 10.4895 236° Southwest  Level Estimated
12:32PM 54.7532 10.3407 236° Southwest  Level Estimated
12:33PM 54.6949 10.1924 236° Southwest  Level Estimated
12:34PM 54.6365 10.0445 236° Southwest  Level Estimated
12:35PM 54.5780 9.8970 235° Southwest  Level Estimated
12:36PM 54.5192 9.7500 235° Southwest  Level Estimated
12:37PM 54.4603 9.6033 235° Southwest  Level Estimated
12:38PM 54.4012 9.4571 235° Southwest  Level Estimated
12:39PM 54.3419 9.3114 235° Southwest  Level Estimated
12:40PM 54.2824 9.1660 235° Southwest  Level Estimated
12:41PM 54.2228 9.0211 235° Southwest  Level Estimated
12:42PM 54.1630 8.8765 235° Southwest  Level Estimated
12:43PM 54.0942 8.7114 235° Southwest  Level Estimated
12:44PM 54.0253 8.5469 234° Southwest  Level Estimated
12:45PM 53.9561 8.3829 234° Southwest  Level Estimated
12:46PM 53.8867 8.2195 234° Southwest  Level Estimated
12:47PM 53.8170 8.0566 234° Southwest  Level Estimated
12:48PM 53.7472 7.8942 234° Southwest  Level Estimated
12:49PM 53.6771 7.7324 234° Southwest  Level Estimated
12:50PM 53.6068 7.5711 234° Southwest  Level Estimated
12:51PM 53.5363 7.4103 233° Southwest  Level Estimated
12:52PM 53.4656 7.2501 233° Southwest  Level Estimated
12:53PM 53.3946 7.0904 233° Southwest  Level Estimated
12:54PM 53.3235 6.9313 233° Southwest  Level Estimated
12:55PM 53.2521 6.7726 233° Southwest  Level Estimated
12:56PM 53.1806 6.6146 233° Southwest  Level Estimated
12:57PM 53.1088 6.4570 233° Southwest  Level Estimated
12:58PM 53.0368 6.3000 233° Southwest  Level Estimated
12:59PM 52.9646 6.1434 232° Southwest  Level Estimated
01:00PM 52.8922 5.9875 232° Southwest  Level Estimated
01:01PM 52.8196 5.8320 232° Southwest  Level Estimated
01:02PM 52.7468 5.6770 232° Southwest  Level Estimated
01:03PM 52.6738 5.5226 232° Southwest  Level Estimated
01:04PM 52.6006 5.3687 232° Southwest  Level Estimated
01:05PM 52.5272 5.2153 232° Southwest  Level Estimated
01:06PM 52.4536 5.0624 232° Southwest  Level Estimated
01:07PM 52.3798 4.9100 231° Southwest  Level Estimated
01:08PM 52.3058 4.7582 51° Northeast  Level Estimated
01:09PM 52.3798 4.9100 231° Southwest  Level Estimated
01:10PM 52.3058 4.7582 51° Northeast  Level Estimated
01:11PM 52.3798 4.9100 231° Southwest  Level Estimated
01:12PM 52.3058 4.7582 51° Northeast  Level Estimated
01:13PM 52.3798 4.9100 231° Southwest  Level Estimated
01:14PM 52.3058 4.7582 51° Northeast  Level Estimated
01:15PM 52.3798 4.9100 231° Southwest  Level Estimated
01:16PM 52.3058 4.7582 51° Northeast  Level Estimated
01:17PM 52.3798 4.9100 231° Southwest  Level Estimated
01:18PM 52.3058 4.7582 51° Northeast  Level Estimated
01:19PM 52.3798 4.9100 51° Northeast  Level Estimated